Time;durP1;ratioP1;P1;durP2;ratioP2;P2;SDS_P1;SDS_P2;PMS_P1;PMS_P2;Temp;Humidity;BMP_temperature;BMP_pressure;BME280_temperature;BME280_humidity;BME280_pressure;Samples;Min_cycle;Max_cycle;Signal;HPM_P1;HPM_P2
2021/04/22 00:00:20;;;;;;;15.85;11.18;;;;;;;10.88;60.85;99828.56;4398485;32;33574;-89
2021/04/22 00:02:48;;;;;;;13.43;9.40;;;;;;;11.09;59.86;99825.87;4383956;32;35632;-90
2021/04/22 00:05:22;;;;;;;15.27;9.07;;;;;;;10.77;61.56;99830.81;4397976;32;33014;-90
2021/04/22 00:07:50;;;;;;;13.35;8.75;;;;;;;11.18;59.61;99825.47;4395702;32;34062;-89
2021/04/22 00:10:21;;;;;;;12.32;9.25;;;;;;;11.01;60.19;99828.88;4395608;32;35562;-90
2021/04/22 00:12:48;;;;;;;14.95;9.25;;;;;;;11.06;59.96;99826.88;4385544;32;34619;-90
2021/04/22 00:15:19;;;;;;;14.15;9.15;;;;;;;10.69;61.70;99825.03;4383872;32;33356;-90
2021/04/22 00:17:48;;;;;;;12.85;9.27;;;;;;;10.97;60.38;99827.31;4393775;32;33990;-90
2021/04/22 00:20:16;;;;;;;15.30;9.63;;;;;;;11.09;59.78;99825.87;4386701;32;33008;-91
2021/04/22 00:22:44;;;;;;;13.20;10.00;;;;;;;10.94;60.52;99830.94;4399175;32;33579;-91
2021/04/22 00:25:14;;;;;;;12.32;8.88;;;;;;;10.80;61.22;99824.56;4384160;32;34634;-90
2021/04/22 00:27:42;;;;;;;11.93;8.57;;;;;;;11.12;60.16;99826.63;4385804;32;34099;-90
2021/04/22 00:30:16;;;;;;;13.55;9.20;;;;;;;11.11;60.25;99826.66;4389383;32;34511;-90
2021/04/22 00:32:44;;;;;;;18.35;9.30;;;;;;;11.07;60.24;99825.13;4363711;32;34577;-90
2021/04/22 00:35:17;;;;;;;14.18;8.55;;;;;;;10.92;60.58;99827.50;4372560;32;35148;-90
2021/04/22 00:37:45;;;;;;;9.43;7.45;;;;;;;10.49;63.11;99828.50;4396675;32;33227;-92
2021/04/22 00:40:19;;;;;;;13.10;7.90;;;;;;;10.75;61.73;99830.03;4411968;32;33383;-91
2021/04/22 00:42:52;;;;;;;9.82;7.18;;;;;;;11.10;60.26;99819.66;4385268;32;34504;-91
2021/04/22 00:45:20;;;;;;;16.30;7.90;;;;;;;11.20;59.78;99819.19;4395701;32;33266;-92
2021/04/22 00:47:48;;;;;;;9.40;7.15;;;;;;;10.81;61.37;99816.56;4391849;32;32850;-91
2021/04/22 00:50:25;;;;;;;11.52;8.00;;;;;;;11.08;60.12;99810.97;4380430;32;34262;-91
2021/04/22 00:52:55;;;;;;;13.98;8.15;;;;;;;10.96;60.66;99807.94;4373030;32;34611;-91
2021/04/22 00:55:23;;;;;;;11.57;8.35;;;;;;;10.73;62.18;99806.34;4379793;32;33585;-91
2021/04/22 00:57:51;;;;;;;13.73;8.90;;;;;;;10.43;64.22;99789.19;4399473;32;34760;-91
2021/04/22 01:00:36;;;;;;;15.20;9.10;;;;;;;9.89;66.84;99780.00;4379011;32;34442;-91
2021/04/22 01:03:04;;;;;;;12.73;9.90;;;;;;;10.04;66.68;99770.59;4367615;32;34698;-92
2021/04/22 01:05:34;;;;;;;13.25;9.35;;;;;;;10.38;65.21;99775.31;4405480;32;33536;-92
2021/04/22 01:08:03;;;;;;;12.93;8.98;;;;;;;10.90;63.54;99762.47;4379464;32;33547;-92
2021/04/22 01:10:32;;;;;;;15.93;9.90;;;;;;;11.38;61.62;99758.44;4398159;32;33707;-92
2021/04/22 01:13:00;;;;;;;12.50;9.50;;;;;;;11.16;62.71;99779.78;4403774;32;33731;-92
2021/04/22 01:15:29;;;;;;;13.32;8.52;;;;;;;10.95;63.56;99785.09;4378829;32;34145;-92
2021/04/22 01:17:58;;;;;;;13.77;9.07;;;;;;;11.28;62.37;99780.03;4388683;32;33713;-92
2021/04/22 01:20:32;;;;;;;10.13;8.55;;;;;;;11.20;63.46;99787.47;4402121;32;34420;-92
2021/04/22 01:23:02;;;;;;;10.93;7.80;;;;;;;11.32;62.94;99796.63;4404944;32;35728;-91
2021/04/22 01:25:33;;;;;;;14.20;8.13;;;;;;;11.66;60.51;99795.00;4378823;32;34261;-91
2021/04/22 01:28:02;;;;;;;12.27;7.80;;;;;;;11.52;61.46;99796.53;4367522;32;34251;-91
2021/04/22 01:30:35;;;;;;;10.95;7.47;;;;;;;11.52;60.24;99804.44;4385660;32;35507;-91
2021/04/22 01:33:04;;;;;;;10.65;7.47;;;;;;;11.48;60.46;99809.97;4373266;32;34444;-91
2021/04/22 01:35:36;;;;;;;9.85;7.37;;;;;;;11.67;60.14;99807.28;4401746;32;33658;-92
2021/04/22 01:38:06;;;;;;;10.05;7.57;;;;;;;11.53;60.44;99811.44;4380627;32;34167;-92
2021/04/22 01:40:36;;;;;;;10.07;6.93;;;;;;;11.44;61.11;99803.09;4380977;32;35685;-92
2021/04/22 01:43:04;;;;;;;9.70;6.82;;;;;;;11.61;59.94;99797.88;4412817;32;34754;-92
2021/04/22 01:45:33;;;;;;;11.80;7.10;;;;;;;11.76;59.30;99796.28;4391423;32;32605;-91
2021/04/22 01:48:00;;;;;;;10.45;7.40;;;;;;;12.05;58.62;99792.22;4391949;32;32879;-90
2021/04/22 01:50:29;;;;;;;10.30;7.07;;;;;;;12.36;58.09;99790.69;4397784;32;33388;-90
2021/04/22 01:52:57;;;;;;;10.40;7.82;;;;;;;12.26;58.16;99785.00;4407226;32;32578;-89
2021/04/22 01:55:40;;;;;;;10.15;8.18;;;;;;;11.90;59.47;99793.84;4387783;32;34999;-89
2021/04/22 01:58:28;;;;;;;10.50;8.18;;;;;;;11.99;58.85;99798.69;4411844;32;32920;-89
2021/04/22 02:00:57;;;;;;;9.65;7.75;;;;;;;11.88;58.99;99793.06;4399582;32;35073;-90
2021/04/22 02:03:27;;;;;;;11.77;8.10;;;;;;;11.53;60.37;99787.66;4394170;32;33654;-90
2021/04/22 02:05:55;;;;;;;10.63;9.05;;;;;;;11.58;60.32;99797.16;4383626;32;33238;-89
2021/04/22 02:08:23;;;;;;;13.00;8.77;;;;;;;11.60;60.14;99790.03;4387638;32;33413;-90
2021/04/22 02:10:50;;;;;;;11.68;8.75;;;;;;;11.46;60.46;99791.53;4395717;32;35490;-90
2021/04/22 02:13:20;;;;;;;13.00;8.65;;;;;;;11.40;61.00;99790.97;4406576;32;34727;-90
2021/04/22 02:15:49;;;;;;;13.62;10.20;;;;;;;11.41;60.88;99790.03;4393756;32;35210;-90
2021/04/22 02:18:16;;;;;;;10.80;8.82;;;;;;;11.54;60.49;99785.88;4378885;32;33363;-90
2021/04/22 02:20:43;;;;;;;11.85;9.30;;;;;;;11.71;60.24;99793.00;4380273;32;34475;-89
2021/04/22 02:23:16;;;;;;;12.27;9.35;;;;;;;11.52;60.66;99800.97;4398064;32;34421;-90
2021/04/22 02:25:44;;;;;;;12.82;9.30;;;;;;;11.66;60.22;99795.00;4376703;32;34240;-90
2021/04/22 02:28:12;;;;;;;11.55;9.52;;;;;;;11.59;60.92;99791.81;4387348;32;33854;-90
2021/04/22 02:30:41;;;;;;;15.35;10.55;;;;;;;11.41;61.71;99790.91;4370074;32;35419;-90
2021/04/22 02:33:11;;;;;;;14.18;11.45;;;;;;;11.24;62.35;99780.25;4378722;32;34113;-90
2021/04/22 02:35:41;;;;;;;14.07;10.27;;;;;;;11.52;61.15;99793.88;4398814;32;33743;-90
2021/04/22 02:38:11;;;;;;;13.32;10.23;;;;;;;11.72;60.47;99792.06;4398801;32;33777;-90
2021/04/22 02:40:40;;;;;;;15.35;10.88;;;;;;;11.77;60.68;99780.34;4378908;32;34720;-91
2021/04/22 02:43:13;;;;;;;13.18;10.23;;;;;;;11.66;60.83;99785.28;4379310;32;34160;-91
2021/04/22 02:45:52;;;;;;;14.32;10.75;;;;;;;11.98;60.07;99786.38;4390488;32;33575;-91
2021/04/22 02:48:24;;;;;;;17.25;11.43;;;;;;;11.87;60.50;99777.25;4383564;32;34244;-91
2021/04/22 02:50:53;;;;;;;15.43;11.32;;;;;;;11.68;61.15;99778.16;4377934;32;35175;-91
2021/04/22 02:53:23;;;;;;;15.18;10.65;;;;;;;11.80;60.78;99776.69;4395169;32;34114;-91
2021/04/22 02:55:51;;;;;;;13.20;9.27;;;;;;;11.76;60.90;99777.75;4392772;32;33294;-91
2021/04/22 02:58:25;;;;;;;14.43;9.80;;;;;;;12.18;59.83;99771.31;4397639;32;34109;-91
2021/04/22 03:00:54;;;;;;;16.55;9.38;;;;;;;11.69;61.08;99779.84;4395920;32;33603;-91
2021/04/22 03:03:24;;;;;;;11.12;9.18;;;;;;;11.56;61.67;99780.53;4386543;32;34460;-91
2021/04/22 03:05:54;;;;;;;14.23;9.73;;;;;;;11.53;61.09;99779.72;4365845;32;34536;-91
2021/04/22 03:08:22;;;;;;;14.60;11.07;;;;;;;11.27;61.70;99775.69;4371931;32;34384;-91
2021/04/22 03:10:50;;;;;;;13.13;9.75;;;;;;;11.30;61.59;99774.69;4377505;32;35405;-91
2021/04/22 03:13:19;;;;;;;13.68;10.30;;;;;;;11.77;60.04;99766.25;4391082;32;33697;-91
2021/04/22 03:15:46;;;;;;;13.82;9.70;;;;;;;11.32;61.24;99764.03;4379618;32;33919;-90
2021/04/22 03:18:14;;;;;;;12.98;9.30;;;;;;;10.99;62.24;99767.31;4391783;32;33318;-90
2021/04/22 03:20:41;;;;;;;12.30;9.23;;;;;;;11.13;61.79;99770.19;4373097;32;34079;-90
2021/04/22 03:23:10;;;;;;;13.35;10.15;;;;;;;11.37;60.96;99770.81;4368532;32;34717;-90
2021/04/22 03:25:37;;;;;;;13.40;10.30;;;;;;;11.13;61.86;99779.91;4391789;32;33641;-90
2021/04/22 03:28:05;;;;;;;17.60;10.38;;;;;;;11.03;61.88;99788.25;4400753;32;34051;-91
2021/04/22 03:30:33;;;;;;;14.38;10.15;;;;;;;11.37;60.61;99781.38;4387258;32;34528;-90
2021/04/22 03:33:01;;;;;;;16.10;11.27;;;;;;;11.26;60.88;99775.75;4388310;32;35503;-90
2021/04/22 03:35:29;;;;;;;15.45;9.70;;;;;;;10.92;61.78;99787.87;4388818;32;33517;-91
2021/04/22 03:37:56;;;;;;;16.45;10.18;;;;;;;10.99;61.55;99784.03;4398704;32;33600;-90
2021/04/22 03:40:25;;;;;;;16.17;10.60;;;;;;;10.86;62.03;99788.16;4397310;32;34388;-91
2021/04/22 03:42:54;;;;;;;17.65;10.15;;;;;;;10.82;62.14;99786.56;4401069;32;34711;-91
2021/04/22 03:45:23;;;;;;;15.68;10.45;;;;;;;10.98;61.48;99784.09;4394139;32;34239;-92
2021/04/22 03:48:10;;;;;;;11.52;9.05;;;;;;;10.73;61.79;99789.66;4411777;32;33203;-92
2021/04/22 03:50:37;;;;;;;13.35;8.85;;;;;;;11.05;60.90;99789.97;4408676;32;33347;-91
2021/04/22 03:53:06;;;;;;;14.87;9.40;;;;;;;10.76;61.56;99803.53;4408668;32;35754;-91
2021/04/22 03:55:49;;;;;;;12.15;9.20;;;;;;;10.80;61.23;99800.78;4396720;32;35193;-92
2021/04/22 03:58:18;;;;;;;15.15;9.77;;;;;;;10.56;62.00;99806.22;4396774;32;33926;-90
2021/04/22 04:00:46;;;;;;;12.60;9.82;;;;;;;11.05;60.71;99808.44;4408044;32;35524;-90
2021/04/22 04:03:13;;;;;;;12.68;9.57;;;;;;;10.69;61.80;99807.41;4395363;32;34570;-90
2021/04/22 04:05:41;;;;;;;22.35;9.98;;;;;;;10.21;63.17;99810.34;4394788;32;33313;-91
2021/04/22 04:08:08;;;;;;;18.40;9.85;;;;;;;10.54;62.07;99804.56;4424088;32;32355;-90
2021/04/22 04:10:36;;;;;;;15.35;10.10;;;;;;;10.56;62.28;99805.34;4389579;32;33981;-91
2021/04/22 04:13:03;;;;;;;14.05;10.75;;;;;;;10.55;62.36;99801.00;4386169;32;34535;-92
2021/04/22 04:15:30;;;;;;;17.23;10.70;;;;;;;10.33;63.20;99801.91;4398607;32;33587;-89
2021/04/22 04:18:00;;;;;;;17.87;10.23;;;;;;;10.49;62.79;99799.47;4394333;32;33987;-89
2021/04/22 04:20:32;;;;;;;18.92;11.85;;;;;;;10.59;62.31;99805.25;4419847;32;34599;-90
2021/04/22 04:23:00;;;;;;;21.30;11.50;;;;;;;10.54;62.13;99818.63;4396281;32;33841;-91
2021/04/22 04:25:27;;;;;;;14.25;10.45;;;;;;;10.46;62.64;99807.53;4399590;32;33269;-91
2021/04/22 04:27:54;;;;;;;13.50;9.70;;;;;;;10.51;62.42;99814.34;4396852;32;33301;-90
2021/04/22 04:30:22;;;;;;;17.98;12.20;;;;;;;10.83;61.39;99820.00;4411385;32;34143;-90
2021/04/22 04:32:50;;;;;;;20.12;12.00;;;;;;;10.87;61.36;99820.69;4397504;32;34073;-89
2021/04/22 04:35:17;;;;;;;17.52;10.75;;;;;;;10.54;62.81;99828.31;4396030;32;35376;-90
2021/04/22 04:37:45;;;;;;;15.30;10.45;;;;;;;10.62;62.85;99826.22;4396354;32;34000;-90
2021/04/22 04:40:14;;;;;;;17.77;11.32;;;;;;;10.56;63.02;99835.25;4396778;32;34898;-89
2021/04/22 04:42:41;;;;;;;19.73;11.38;;;;;;;11.06;61.49;99826.88;4409351;32;34435;-89
2021/04/22 04:45:12;;;;;;;18.15;11.52;;;;;;;11.08;61.93;99835.59;4408281;32;33235;-89
2021/04/22 04:47:39;;;;;;;17.42;10.52;;;;;;;11.13;61.86;99848.59;4416862;32;34516;-90
2021/04/22 04:50:08;;;;;;;20.42;11.95;;;;;;;11.17;61.83;99850.19;4407530;32;34396;-90
2021/04/22 04:52:36;;;;;;;19.27;11.60;;;;;;;11.17;62.19;99861.63;4385741;32;34799;-89
2021/04/22 04:55:04;;;;;;;20.17;11.43;;;;;;;11.16;62.35;99864.34;4384069;32;33922;-90
2021/04/22 04:57:32;;;;;;;18.35;11.00;;;;;;;11.13;62.37;99853.88;4412504;32;33194;-90
2021/04/22 05:00:00;;;;;;;22.45;10.85;;;;;;;11.20;63.28;99855.31;4404850;32;34168;-91
2021/04/22 05:02:27;;;;;;;16.10;10.25;;;;;;;11.34;63.07;99852.91;4395253;32;34529;-91
2021/04/22 05:04:54;;;;;;;14.87;10.20;;;;;;;11.26;62.76;99863.00;4410017;32;33373;-91
2021/04/22 05:07:22;;;;;;;12.93;9.05;;;;;;;11.44;62.45;99863.91;4403129;32;34213;-90
2021/04/22 05:09:49;;;;;;;16.98;9.73;;;;;;;11.65;61.94;99867.34;4409345;32;34675;-90
2021/04/22 05:12:16;;;;;;;16.67;10.52;;;;;;;11.54;62.53;99866.06;4383206;32;33753;-88
2021/04/22 05:14:44;;;;;;;17.12;10.27;;;;;;;11.90;61.55;99862.63;4406813;32;34565;-90
2021/04/22 05:17:12;;;;;;;15.93;10.35;;;;;;;12.02;60.53;99872.66;4395511;32;33534;-90
2021/04/22 05:19:39;;;;;;;13.43;9.82;;;;;;;12.11;60.76;99871.34;4407049;32;34502;-90
2021/04/22 05:22:07;;;;;;;16.92;11.43;;;;;;;12.33;60.35;99863.19;4394090;32;34860;-90
2021/04/22 05:24:34;;;;;;;12.13;8.77;;;;;;;12.69;60.42;99863.13;4394668;32;32586;-89
2021/04/22 05:27:01;;;;;;;11.00;8.57;;;;;;;12.36;60.92;99860.38;4422081;32;33125;-91
2021/04/22 05:29:29;;;;;;;11.52;8.00;;;;;;;12.80;60.50;99859.91;4381418;32;35097;-90
2021/04/22 05:31:56;;;;;;;10.90;7.65;;;;;;;13.29;58.09;99846.72;4409851;32;33750;-90
2021/04/22 05:34:24;;;;;;;13.35;7.65;;;;;;;13.23;57.74;99849.72;4409450;32;33724;-90
2021/04/22 05:36:52;;;;;;;9.20;7.22;;;;;;;13.50;57.53;99850.88;4408775;32;34197;-90
2021/04/22 05:39:22;;;;;;;11.40;7.40;;;;;;;13.65;56.48;99848.31;4395045;32;33056;-89
2021/04/22 05:41:50;;;;;;;10.85;7.50;;;;;;;14.05;56.42;99855.75;4396428;32;32274;-90
2021/04/22 05:44:18;;;;;;;12.23;8.30;;;;;;;14.15;56.36;99855.22;4408659;32;34002;-91
2021/04/22 05:46:46;;;;;;;10.40;7.03;;;;;;;14.24;54.97;99854.69;4410402;32;33702;-90
2021/04/22 05:49:13;;;;;;;12.70;8.25;;;;;;;14.48;53.83;99855.97;4410142;32;33415;-89
2021/04/22 05:51:42;;;;;;;13.93;7.55;;;;;;;14.16;54.72;99854.28;4404882;32;34717;-88
2021/04/22 05:54:10;;;;;;;10.68;7.78;;;;;;;14.48;53.91;99857.75;4410383;32;33516;-90
2021/04/22 05:56:38;;;;;;;10.85;8.38;;;;;;;14.36;54.31;99853.97;4396776;32;33979;-90
2021/04/22 05:59:06;;;;;;;9.07;7.10;;;;;;;14.31;53.54;99848.09;4393901;32;34890;-89
2021/04/22 06:01:33;;;;;;;11.60;8.48;;;;;;;14.74;52.69;99856.22;4403959;32;32417;-88
2021/04/22 06:04:02;;;;;;;10.48;7.47;;;;;;;14.58;51.79;99858.94;4394278;32;34787;-92
2021/04/22 06:06:33;;;;;;;;;;;;;;;14.55;52.31;99861.75;4390404;32;35539;-91
2021/04/22 06:09:01;;;;;;;10.65;7.70;;;;;;;14.31;54.10;99861.38;4404855;32;33578;-91
2021/04/22 06:11:31;;;;;;;11.20;7.68;;;;;;;14.75;52.78;99855.25;4385690;32;34899;-91
2021/04/22 06:14:03;;;;;;;10.75;8.55;;;;;;;15.00;52.22;99862.59;4385330;32;33298;-91
2021/04/22 06:16:31;;;;;;;11.35;7.60;;;;;;;14.83;53.12;99863.63;4394668;32;34009;-89
2021/04/22 06:18:58;;;;;;;13.75;8.70;;;;;;;14.98;52.50;99859.19;4397050;32;33443;-88
2021/04/22 06:21:30;;;;;;;10.75;8.20;;;;;;;15.25;51.38;99859.31;4397078;32;33900;-88
2021/04/22 06:23:58;;;;;;;9.93;7.10;;;;;;;15.20;51.04;99867.56;4403585;32;33769;-91
2021/04/22 06:26:32;;;;;;;11.32;7.35;;;;;;;15.23;50.35;99874.47;4386063;32;32801;-88
2021/04/22 06:29:03;;;;;;;14.95;8.27;;;;;;;15.06;51.93;99873.72;4390861;32;33840;-89
2021/04/22 06:31:45;;;;;;;10.57;7.45;;;;;;;15.22;51.72;99867.47;4396876;32;34438;-92
2021/04/22 06:34:42;;;;;;;9.88;7.82;;;;;;;15.22;51.54;99867.47;4393150;32;32753;-93
2021/04/22 06:37:35;;;;;;;10.35;7.93;;;;;;;15.35;50.83;99868.41;4368051;32;31896;-92
2021/04/22 06:40:22;;;;;;;11.25;8.18;;;;;;;15.30;51.58;99881.16;4426492;32;32495;-91
2021/04/22 06:43:15;;;;;;;11.90;8.88;;;;;;;15.73;51.11;99883.81;4370585;32;32942;-90
2021/04/22 06:46:07;;;;;;;14.25;9.65;;;;;;;15.68;51.23;99883.25;4401517;32;32407;-91
2021/04/22 06:48:50;;;;;;;12.60;9.48;;;;;;;15.76;51.29;99879.16;4374953;32;33773;-90
2021/04/22 06:51:33;;;;;;;15.02;8.55;;;;;;;15.42;51.56;99879.53;4403429;32;34592;-90
2021/04/22 06:54:38;;;;;;;13.15;8.32;;;;;;;15.54;51.68;99874.28;4427565;32;32980;-90
2021/04/22 06:57:16;;;;;;;12.40;8.00;;;;;;;15.73;51.48;99862.53;4426716;32;35310;-90
2021/04/22 07:00:34;;;;;;;11.40;7.62;;;;;;;16.15;49.88;99874.00;4395321;32;34131;-90
2021/04/22 07:03:51;;;;;;;11.90;7.47;;;;;;;16.13;49.77;99877.59;4372300;32;34300;-91
2021/04/22 07:06:34;;;;;;;10.40;8.00;;;;;;;16.81;48.77;99867.81;4379885;32;33254;-90
2021/04/22 07:09:09;;;;;;;10.00;7.87;;;;;;;16.81;47.56;99867.81;4363364;32;34624;-89
2021/04/22 07:11:45;;;;;;;11.68;8.85;;;;;;;17.11;47.05;99868.34;4385339;32;33770;-90
2021/04/22 07:14:45;;;;;;;12.95;8.50;;;;;;;16.28;45.71;99866.91;4374429;32;34918;-90
2021/04/22 07:17:35;;;;;;;;;;;;;;;16.96;47.16;99865.91;4376724;32;33087;-90
2021/04/22 07:20:23;;;;;;;14.80;8.90;;;;;;;17.38;46.28;99867.41;4403908;32;32740;-92
2021/04/22 07:23:14;;;;;;;10.50;7.60;;;;;;;17.10;45.96;99877.34;4377612;32;32832;-92
2021/04/22 07:25:58;;;;;;;11.93;8.57;;;;;;;17.50;46.40;99876.34;4415955;32;33015;-92
2021/04/22 07:28:37;;;;;;;10.52;7.80;;;;;;;17.70;45.18;99870.41;4405529;32;32356;-91
2021/04/22 07:31:44;;;;;;;13.52;8.20;;;;;;;17.56;45.25;99871.41;4398047;32;33968;-92
2021/04/22 07:34:15;;;;;;;10.48;7.68;;;;;;;17.58;45.46;99874.84;4372552;32;34081;-90
2021/04/22 07:36:59;;;;;;;12.77;8.75;;;;;;;17.91;45.30;99868.06;4422818;32;34035;-90
2021/04/22 07:39:55;;;;;;;11.38;8.75;;;;;;;17.97;44.41;99870.28;4419185;32;34564;-90
2021/04/22 07:42:46;;;;;;;12.52;9.95;;;;;;;18.07;43.83;99873.97;4403344;32;33713;-90
2021/04/22 07:45:47;;;;;;;12.37;9.23;;;;;;;18.08;45.11;99878.34;4395592;32;34013;-92
2021/04/22 07:48:28;;;;;;;11.38;8.77;;;;;;;18.53;44.06;99873.22;4355118;32;32585;-91
2021/04/22 07:51:23;;;;;;;14.77;8.75;;;;;;;18.36;44.31;99878.97;4386039;32;34445;-91
2021/04/22 07:54:11;;;;;;;12.65;8.30;;;;;;;18.75;44.05;99882.31;4408729;32;34518;-92
2021/04/22 07:56:38;;;;;;;11.05;8.23;;;;;;;18.66;43.12;99878.50;4411450;32;33724;-87
2021/04/22 07:59:08;;;;;;;9.00;7.68;;;;;;;18.89;43.94;99872.25;4416653;32;34856;-87
2021/04/22 08:01:35;;;;;;;9.93;7.65;;;;;;;18.80;43.07;99874.78;4408727;32;32994;-91
2021/04/22 08:04:05;;;;;;;10.95;9.05;;;;;;;18.76;42.64;99871.50;4392654;32;32596;-89
2021/04/22 08:06:41;;;;;;;11.25;8.63;;;;;;;19.20;44.00;99875.25;4413225;32;32776;-89
2021/04/22 08:09:09;;;;;;;13.18;8.70;;;;;;;19.33;42.14;99872.47;4406947;32;35214;-89
2021/04/22 08:11:42;;;;;;;9.23;7.47;;;;;;;19.53;41.75;99876.22;4409074;32;34503;-89
2021/04/22 08:14:13;;;;;;;10.25;7.80;;;;;;;19.63;41.19;99880.75;4416043;32;33153;-90
2021/04/22 08:16:42;;;;;;;9.23;7.50;;;;;;;19.94;41.81;99867.56;4421794;32;33814;-90
2021/04/22 08:19:11;;;;;;;10.95;8.57;;;;;;;19.83;40.49;99862.22;4410081;32;34571;-89
2021/04/22 08:21:44;;;;;;;11.27;9.52;;;;;;;20.03;40.80;99856.06;4415760;32;33847;-89
2021/04/22 08:24:18;;;;;;;11.15;8.82;;;;;;;20.06;41.48;99857.66;4383949;32;35271;-89
2021/04/22 08:26:51;;;;;;;13.25;8.90;;;;;;;19.90;39.44;99856.25;4400740;32;32108;-89
2021/04/22 08:29:26;;;;;;;11.55;9.05;;;;;;;19.95;41.37;99861.25;4409645;32;33964;-89
2021/04/22 08:32:01;;;;;;;13.18;8.52;;;;;;;20.19;39.74;99859.22;4408153;32;32657;-89
2021/04/22 08:35:06;;;;;;;14.18;9.23;;;;;;;20.29;39.31;99855.78;4405711;32;34126;-89
2021/04/22 08:37:37;;;;;;;10.07;8.35;;;;;;;19.74;41.86;99862.97;4430724;32;33190;-89
2021/04/22 08:40:11;;;;;;;14.00;8.68;;;;;;;20.10;40.73;99857.28;4409144;32;34401;-89
2021/04/22 08:42:40;;;;;;;11.30;8.48;;;;;;;20.16;40.32;99864.81;4426070;32;33846;-89
2021/04/22 08:45:14;;;;;;;10.82;9.38;;;;;;;20.19;39.87;99861.91;4404506;32;34393;-90
2021/04/22 08:47:50;;;;;;;13.27;10.27;;;;;;;20.08;40.20;99859.25;4390213;32;33786;-89
2021/04/22 08:50:32;;;;;;;14.35;9.30;;;;;;;19.97;41.59;99858.41;4406510;32;32867;-90
2021/04/22 08:53:06;;;;;;;13.23;9.48;;;;;;;20.12;39.63;99860.69;4407149;32;33899;-90
2021/04/22 08:55:43;;;;;;;13.52;10.73;;;;;;;20.47;40.08;99865.00;4404308;32;34727;-89
2021/04/22 08:58:22;;;;;;;9.88;8.82;;;;;;;20.62;38.62;99855.66;4389368;32;34699;-88
2021/04/22 09:01:05;;;;;;;11.40;8.77;;;;;;;20.44;39.49;99859.84;4403011;32;32818;-90
2021/04/22 09:03:44;;;;;;;12.88;10.70;;;;;;;20.97;39.39;99857.16;4393103;32;34825;-89
2021/04/22 09:06:24;;;;;;;13.10;10.35;;;;;;;21.13;37.84;99852.19;4388287;32;32720;-90
2021/04/22 09:08:53;;;;;;;14.48;9.65;;;;;;;20.89;38.61;99854.31;4404123;32;33305;-86
2021/04/22 09:11:23;;;;;;;11.55;9.35;;;;;;;21.15;39.17;99854.72;4414998;32;35299;-87
2021/04/22 09:13:52;;;;;;;13.10;10.90;;;;;;;21.23;36.71;99858.44;4409583;32;34864;-86
2021/04/22 09:16:22;;;;;;;12.37;10.35;;;;;;;21.46;36.19;99859.16;4393430;32;35604;-87
2021/04/22 09:18:52;;;;;;;12.55;10.13;;;;;;;21.73;37.87;99853.16;4397043;32;33991;-87
2021/04/22 09:21:24;;;;;;;10.98;8.93;;;;;;;21.56;36.94;99858.34;4396143;32;35827;-86
2021/04/22 09:24:02;;;;;;;13.88;9.38;;;;;;;21.31;36.31;99854.25;4381696;32;33681;-86
2021/04/22 09:26:57;;;;;;;11.32;9.43;;;;;;;21.28;35.64;99865.25;4405330;32;34273;-86
2021/04/22 09:29:44;;;;;;;11.82;8.70;;;;;;;21.41;35.01;99860.50;4410846;32;33061;-85
2021/04/22 09:32:16;;;;;;;15.35;8.52;;;;;;;21.16;34.11;99854.56;4401466;32;33085;-86
2021/04/22 09:34:50;;;;;;;8.88;7.47;;;;;;;21.23;35.15;99860.28;4409305;32;35326;-86
2021/04/22 09:37:21;;;;;;;9.23;7.62;;;;;;;21.56;33.00;99848.44;4391989;32;35026;-84
2021/04/22 09:39:49;;;;;;;13.43;8.20;;;;;;;21.33;34.10;99855.84;4397928;32;34544;-84
2021/04/22 09:42:18;;;;;;;10.50;7.87;;;;;;;21.61;34.14;99851.56;4406129;32;34052;-84
2021/04/22 09:44:49;;;;;;;9.48;7.97;;;;;;;21.65;34.56;99847.63;4412880;32;34303;-84
2021/04/22 09:47:23;;;;;;;11.18;8.48;;;;;;;21.74;33.00;99856.69;4405634;32;33334;-86
2021/04/22 09:49:55;;;;;;;11.98;8.70;;;;;;;21.84;32.72;99846.84;4404176;32;33119;-86
2021/04/22 09:52:28;;;;;;;11.77;9.43;;;;;;;22.04;32.92;99836.97;4409624;32;34101;-84
2021/04/22 09:54:56;;;;;;;9.82;8.05;;;;;;;22.06;33.03;99834.97;4383201;32;34822;-84
2021/04/22 09:57:25;;;;;;;9.63;7.62;;;;;;;21.99;32.13;99848.13;4401575;32;33419;-84
2021/04/22 09:59:53;;;;;;;13.85;8.63;;;;;;;21.91;32.33;99847.13;4402285;32;33709;-86
2021/04/22 10:02:21;;;;;;;10.98;8.65;;;;;;;21.95;32.56;99838.63;4398888;32;33445;-86
2021/04/22 10:04:51;;;;;;;12.30;8.98;;;;;;;22.14;33.15;99842.38;4397989;32;34448;-86
2021/04/22 10:07:26;;;;;;;9.35;8.02;;;;;;;21.83;33.08;99837.03;4374452;32;34625;-86
2021/04/22 10:09:58;;;;;;;9.52;7.90;;;;;;;21.69;32.98;99837.44;4393315;32;32706;-84
2021/04/22 10:12:32;;;;;;;10.88;7.68;;;;;;;21.90;34.66;99831.97;4398490;32;33925;-84
2021/04/22 10:15:10;;;;;;;12.43;8.05;;;;;;;21.48;34.92;99830.31;4372369;32;32680;-84
2021/04/22 10:17:38;;;;;;;10.00;8.57;;;;;;;21.20;34.68;99831.00;4396026;32;36334;-85
2021/04/22 10:20:12;;;;;;;8.55;6.62;;;;;;;21.54;33.49;99828.91;4398098;32;33616;-85
2021/04/22 10:22:43;;;;;;;7.57;6.85;;;;;;;21.48;33.47;99829.47;4396724;32;35292;-86
2021/04/22 10:25:12;;;;;;;11.70;7.73;;;;;;;21.34;33.71;99822.62;4388099;32;35752;-86
2021/04/22 10:27:40;;;;;;;7.40;5.93;;;;;;;21.20;33.64;99821.09;4369556;32;34604;-86
2021/04/22 10:30:13;;;;;;;11.43;4.80;;;;;;;21.22;32.05;99821.84;4369577;32;33660;-86
2021/04/22 10:32:42;;;;;;;10.70;5.90;;;;;;;21.29;30.69;99818.59;4403962;32;32821;-86
2021/04/22 10:35:14;;;;;;;10.80;6.82;;;;;;;21.58;31.12;99818.75;4388441;32;35490;-86
2021/04/22 10:37:44;;;;;;;7.97;6.80;;;;;;;21.48;32.65;99821.41;4390042;32;33786;-86
2021/04/22 10:40:16;;;;;;;7.93;6.40;;;;;;;21.56;31.43;99818.87;4368806;32;32859;-86
2021/04/22 10:42:44;;;;;;;9.05;5.90;;;;;;;21.53;31.44;99818.31;4391143;32;34280;-84
2021/04/22 10:45:19;;;;;;;7.93;6.18;;;;;;;21.62;31.24;99810.28;4373509;32;33763;-86
2021/04/22 10:47:53;;;;;;;9.80;5.95;;;;;;;21.45;30.26;99819.81;4400475;32;34752;-86
2021/04/22 10:50:26;;;;;;;14.13;6.93;;;;;;;21.51;31.36;99806.81;4394511;32;33175;-88
2021/04/22 10:52:54;;;;;;;11.98;6.62;;;;;;;21.71;31.88;99812.13;4400058;32;33199;-88
2021/04/22 10:55:32;;;;;;;8.15;4.93;;;;;;;21.86;31.32;99809.06;4405774;32;34667;-86
2021/04/22 10:58:22;;;;;;;7.50;4.45;;;;;;;21.77;30.21;99816.09;4380938;32;34404;-86
2021/04/22 11:00:50;;;;;;;8.18;4.72;;;;;;;21.33;32.48;99820.91;4406751;32;32881;-86
2021/04/22 11:03:33;;;;;;;9.55;5.68;;;;;;;21.06;30.53;99821.47;4407954;32;33995;-86
2021/04/22 11:06:06;;;;;;;;;;;;;;;21.04;32.32;99815.38;4401234;32;34252;-84
2021/04/22 11:08:54;;;;;;;7.22;5.35;;;;;;;20.07;32.83;99803.06;4402819;32;32875;-86
2021/04/22 11:11:34;;;;;;;9.52;6.47;;;;;;;20.29;34.70;99807.50;4391983;32;32972;-86
2021/04/22 11:14:05;;;;;;;8.15;5.75;;;;;;;20.60;34.37;99812.00;4401273;32;35455;-85
2021/04/22 11:16:36;;;;;;;8.53;4.53;;;;;;;20.08;33.99;99804.78;4414846;32;34190;-86
2021/04/22 11:19:18;;;;;;;6.30;3.50;;;;;;;19.61;34.24;99806.88;4391726;32;34485;-85
2021/04/22 11:21:52;;;;;;;4.30;3.42;;;;;;;19.96;34.94;99806.66;4394903;32;35564;-86
2021/04/22 11:24:35;;;;;;;6.90;3.47;;;;;;;19.76;35.93;99807.44;4391467;32;34866;-86
2021/04/22 11:27:14;;;;;;;4.12;2.70;;;;;;;19.76;34.93;99794.06;4406683;32;37655;-86
2021/04/22 11:29:53;;;;;;;3.42;2.62;;;;;;;19.45;36.46;99807.22;4392074;32;32301;-86
2021/04/22 11:32:26;;;;;;;4.25;2.97;;;;;;;19.46;39.94;99787.47;4394767;32;33655;-86
2021/04/22 11:34:58;;;;;;;;;;;;;;;19.64;38.27;99786.03;4402261;32;32149;-86
2021/04/22 11:37:31;;;;;;;3.28;2.97;;;;;;;19.80;37.51;99790.16;4406542;32;34005;-86
2021/04/22 11:40:16;;;;;;;3.20;2.67;;;;;;;19.97;36.40;99780.69;4404238;32;33227;-86
2021/04/22 11:42:46;;;;;;;5.15;2.75;;;;;;;20.09;35.87;99785.06;4405447;32;34226;-87
2021/04/22 11:45:20;;;;;;;5.47;3.40;;;;;;;20.49;35.99;99781.72;4396210;32;35536;-86
2021/04/22 11:47:52;;;;;;;6.72;3.37;;;;;;;20.32;36.18;99775.06;4421246;32;34508;-86
2021/04/22 11:50:22;;;;;;;3.47;2.92;;;;;;;21.04;34.18;99769.75;4395575;32;34872;-86
2021/04/22 11:52:58;;;;;;;6.03;3.33;;;;;;;21.70;31.87;99767.44;4394355;32;32204;-86